Time;durP1;ratioP1;P1;durP2;ratioP2;P2;SDS_P1;SDS_P2;PMS_P1;PMS_P2;Temp;Humidity;BMP_temperature;BMP_pressure;BME280_temperature;BME280_humidity;BME280_pressure;Samples;Min_cycle;Max_cycle;Signal;HPM_P1;HPM_P2
2021/11/06 00:00:53;;;;;;;;;38.50;31.75;;;;;18.29;75.76;101646.44;146607;600;46012;-73
2021/11/06 00:03:27;;;;;;;;;42.25;32.25;;;;;18.31;75.49;101655.22;146610;638;46011;-72
2021/11/06 00:06:01;;;;;;;;;45.75;34.50;;;;;18.31;75.67;101652.59;146607;629;46020;-72
2021/11/06 00:08:35;;;;;;;;;47.25;36.00;;;;;18.30;75.37;101638.59;146609;584;46010;-73
2021/11/06 00:11:09;;;;;;;;;48.00;37.75;;;;;18.29;75.45;101639.44;146605;588;46012;-74
2021/11/06 00:13:43;;;;;;;;;39.25;32.75;;;;;18.31;75.20;101636.84;146609;619;46022;-73
2021/11/06 00:16:16;;;;;;;;;43.50;34.50;;;;;18.30;75.28;101620.22;146605;579;46017;-74
2021/11/06 00:18:50;;;;;;;;;36.75;30.25;;;;;18.29;75.09;101628.94;146610;655;46021;-73
2021/11/06 00:21:24;;;;;;;;;38.25;31.50;;;;;18.29;75.78;101628.06;146606;616;45016;-73
2021/11/06 00:23:59;;;;;;;;;40.25;33.00;;;;;18.27;75.79;101627.97;146606;576;46020;-72
2021/11/06 00:26:32;;;;;;;;;38.00;32.50;;;;;18.24;75.58;101622.63;146606;630;45021;-73
2021/11/06 00:29:06;;;;;;;;;46.00;35.25;;;;;18.22;75.66;101619.03;146608;593;46020;-74
2021/11/06 00:31:40;;;;;;;;;38.75;31.50;;;;;18.23;76.13;101626.09;146608;588;46012;-75
2021/11/06 00:34:14;;;;;;;;;38.50;33.25;;;;;17.22;76.02;101462.50;146608;602;46021;-74
2021/11/06 00:36:48;;;;;;;;;41.50;32.75;;;;;17.23;76.32;101466.94;146607;599;45020;-73
2021/11/06 00:39:22;;;;;;;;;46.25;36.50;;;;;18.18;76.38;101627.66;146610;584;45020;-81
2021/11/06 00:41:56;;;;;;;;;42.00;35.00;;;;;18.19;76.50;101632.06;146604;637;46016;-79
2021/11/06 00:44:30;;;;;;;;;43.50;35.00;;;;;18.19;76.21;101626.81;146608;626;45020;-77
2021/11/06 00:47:04;;;;;;;;;44.25;35.00;;;;;18.20;76.07;101623.37;146607;587;45020;-79
2021/11/06 00:49:38;;;;;;;;;45.25;34.75;;;;;18.21;75.98;101614.66;146608;593;46010;-80
2021/11/06 00:52:12;;;;;;;;;38.00;33.00;;;;;18.22;76.24;101613.78;146606;581;45039;-77
2021/11/06 00:54:46;;;;;;;;;43.75;35.00;;;;;18.20;76.87;101619.00;146610;675;45021;-76
2021/11/06 00:57:21;;;;;;;;;39.25;31.75;;;;;18.19;76.48;101619.87;146604;646;46016;-82
2021/11/06 00:59:55;;;;;;;;;45.50;34.50;;;;;18.19;76.56;101625.12;146610;616;45020;-80
2021/11/06 01:02:29;;;;;;;;;37.25;31.00;;;;;18.21;76.72;101622.53;146608;660;46012;-80
2021/11/06 01:05:02;;;;;;;;;36.50;31.25;;;;;18.18;75.95;101619.78;146609;590;46020;-81
2021/11/06 01:07:37;;;;;;;;;36.50;32.00;;;;;18.18;76.24;101620.69;146608;652;45020;-80
2021/11/06 01:10:13;;;;;;;;;34.75;28.25;;;;;18.16;76.03;101621.47;146608;579;46021;-80
2021/11/06 01:12:48;;;;;;;;;34.75;30.75;;;;;18.15;75.83;101631.06;146608;576;45042;-80
2021/11/06 01:15:22;;;;;;;;;37.50;30.75;;;;;18.15;75.80;101632.81;146608;563;46012;-81
2021/11/06 01:17:56;;;;;;;;;33.25;29.75;;;;;18.14;76.45;101625.78;146605;588;46016;-82
2021/11/06 01:20:30;;;;;;;;;43.75;35.50;;;;;18.13;76.90;101635.41;146611;596;46012;-75
2021/11/06 01:23:04;;;;;;;;;43.50;35.75;;;;;18.08;76.72;101638.69;146606;580;45020;-82
2021/11/06 01:25:41;;;;;;;;;43.25;32.00;;;;;18.04;76.75;101645.56;146609;735;46012;-71
2021/11/06 01:28:15;;;;;;;;;45.75;34.75;;;;;18.02;77.03;101644.63;146608;670;45016;-76
2021/11/06 01:30:49;;;;;;;;;52.25;41.00;;;;;17.98;77.66;101633.13;146610;608;46013;-78
2021/11/06 01:33:23;;;;;;;;;50.00;40.25;;;;;17.95;76.99;101637.37;146605;569;46016;-78
2021/11/06 01:35:57;;;;;;;;;49.75;38.50;;;;;17.95;77.08;101629.50;146608;618;46020;-78
2021/11/06 01:38:31;;;;;;;;;44.75;37.50;;;;;17.94;77.49;101630.31;146606;607;46013;-73
2021/11/06 01:41:05;;;;;;;;;49.50;37.00;;;;;17.91;77.26;101623.25;146607;671;46020;-73
2021/11/06 01:43:39;;;;;;;;;45.50;36.75;;;;;17.91;77.59;101619.72;146609;606;45033;-70
2021/11/06 01:46:13;;;;;;;;;43.50;34.75;;;;;17.89;77.25;101622.28;146608;572;46020;-71
2021/11/06 01:48:47;;;;;;;;;39.50;34.25;;;;;17.87;77.80;101623.97;146605;701;45042;-73
2021/11/06 01:51:21;;;;;;;;;45.50;38.00;;;;;17.87;77.83;101620.44;146609;563;45020;-73
2021/11/06 01:53:56;;;;;;;;;44.25;35.50;;;;;17.87;77.66;101620.44;146605;581;46017;-76
2021/11/06 01:56:30;;;;;;;;;44.00;33.50;;;;;17.87;78.02;101621.34;146609;604;46020;-72
2021/11/06 01:59:04;;;;;;;;;36.50;31.75;;;;;17.86;79.24;101621.28;146606;652;45020;-74
2021/11/06 02:01:38;;;;;;;;;36.75;30.75;;;;;17.82;78.97;101625.53;146609;567;46020;-74
2021/11/06 02:04:12;;;;;;;;;41.00;33.25;;;;;17.79;78.96;101614.94;146608;628;45016;-73
2021/11/06 02:06:46;;;;;;;;;40.00;33.00;;;;;17.76;79.00;101626.19;146611;607;45020;-72
2021/11/06 02:09:20;;;;;;;;;34.25;29.75;;;;;17.74;78.89;101619.97;146606;564;46017;-73
2021/11/06 02:11:54;;;;;;;;;36.50;30.00;;;;;17.73;78.75;101612.94;146610;623;45020;-74
2021/11/06 02:14:28;;;;;;;;;36.00;30.50;;;;;17.73;78.72;101601.56;146609;582;46012;-75
2021/11/06 02:17:02;;;;;;;;;34.00;30.25;;;;;17.74;78.05;101611.22;146612;650;45021;-73
2021/11/06 02:19:36;;;;;;;;;42.50;34.00;;;;;17.76;77.74;101604.31;146606;572;46016;-74
2021/11/06 02:22:10;;;;;;;;;41.50;32.00;;;;;17.79;78.00;101596.56;146613;565;45012;-72
2021/11/06 02:24:44;;;;;;;;;32.50;30.00;;;;;17.81;78.17;101600.13;146605;571;46017;-71
2021/11/06 02:27:18;;;;;;;;;43.00;35.00;;;;;17.81;78.51;101607.09;146610;622;46020;-71
2021/11/06 02:29:52;;;;;;;;;43.50;35.00;;;;;17.80;78.26;101602.72;146611;612;45034;-70
2021/11/06 02:32:26;;;;;;;;;44.75;33.75;;;;;17.80;78.35;101606.22;146610;567;45023;-71
2021/11/06 02:35:00;;;;;;;;;38.50;32.50;;;;;17.78;78.61;101605.25;146609;599;45016;-71
2021/11/06 02:37:34;;;;;;;;;36.75;32.00;;;;;17.75;78.29;101610.38;146610;608;46020;-70
2021/11/06 02:40:11;;;;;;;;;39.25;32.50;;;;;17.72;78.04;101608.53;146607;608;45016;-72
2021/11/06 02:42:45;;;;;;;;;35.50;31.75;;;;;17.73;78.53;101606.81;146607;609;46020;-71
2021/11/06 02:45:20;;;;;;;;;39.75;32.00;;;;;17.72;78.62;101613.75;146607;595;46012;-73
2021/11/06 02:47:55;;;;;;;;;40.00;32.25;;;;;17.67;78.52;101610.09;146608;589;46020;-73
2021/11/06 02:50:32;;;;;;;;;35.50;32.00;;;;;17.66;78.24;101613.56;146608;604;45915;-74
2021/11/06 02:53:07;;;;;;;;;33.75;31.50;;;;;17.65;78.38;101617.00;146609;579;45021;-73
2021/11/06 02:55:41;;;;;;;;;37.25;32.25;;;;;17.66;78.82;101624.06;146604;613;46016;-73
2021/11/06 02:58:15;;;;;;;;;36.00;32.00;;;;;17.65;78.65;101626.63;146607;593;46010;-73
2021/11/06 03:00:50;;;;;;;;;31.75;29.50;;;;;17.63;77.97;101630.91;146606;580;46016;-73
2021/11/06 03:03:24;;;;;;;;;34.00;29.50;;;;;17.63;77.92;101628.28;146609;574;45020;-72
2021/11/06 03:05:57;;;;;;;;;31.25;28.00;;;;;17.63;77.80;101638.75;146606;563;45018;-72
2021/11/06 03:08:31;;;;;;;;;32.00;27.00;;;;;17.64;78.15;101632.72;146611;642;45021;-74
2021/11/06 03:11:05;;;;;;;;;37.50;31.25;;;;;17.64;77.97;101627.47;146609;569;46012;-77
2021/11/06 03:13:41;;;;;;;;;45.50;34.00;;;;;17.63;78.05;101633.53;146608;600;46012;-76
2021/11/06 03:16:17;;;;;;;;;38.75;33.00;;;;;16.64;78.24;101458.59;146605;570;45018;-77
2021/11/06 03:18:51;;;;;;;;;39.50;32.00;;;;;17.66;77.97;101634.56;146610;611;46012;-77
2021/11/06 03:21:27;;;;;;;;;44.50;35.25;;;;;17.65;78.07;101640.63;146606;566;45020;-77
2021/11/06 03:24:01;;;;;;;;;28.25;26.00;;;;;17.65;77.87;101631.84;146608;580;46020;-77
2021/11/06 03:26:35;;;;;;;;;29.75;27.00;;;;;17.64;77.65;101635.34;146606;587;46016;-76
2021/11/06 03:29:09;;;;;;;;;25.50;24.50;;;;;17.64;77.33;101638.84;146610;686;45030;-77
2021/11/06 03:31:43;;;;;;;;;28.50;26.00;;;;;17.65;77.05;101642.34;146605;597;45021;-78
2021/11/06 03:34:17;;;;;;;;;27.50;23.25;;;;;17.66;77.15;101647.66;146605;606;46020;-79
2021/11/06 03:36:51;;;;;;;;;27.75;25.25;;;;;17.68;77.13;101642.47;146608;564;46012;-80
2021/11/06 03:39:25;;;;;;;;;22.75;20.25;;;;;17.69;77.10;101644.25;146610;578;46012;-78
2021/11/06 03:41:58;;;;;;;;;26.25;21.25;;;;;17.68;76.97;101651.22;146605;659;46915;-80
2021/11/06 03:44:32;;;;;;;;;26.25;24.00;;;;;17.69;76.73;101654.72;146609;596;46021;-75
2021/11/06 03:47:07;;;;;;;;;24.75;21.75;;;;;17.68;76.90;101648.59;146608;585;45030;-78
2021/11/06 03:49:41;;;;;;;;;24.75;21.00;;;;;17.67;76.89;101651.19;146606;648;46012;-76
2021/11/06 03:52:14;;;;;;;;;25.75;21.25;;;;;17.68;76.90;101645.97;146609;574;46013;-80
2021/11/06 03:54:48;;;;;;;;;24.00;22.75;;;;;17.65;76.75;101640.63;146609;564;45031;-74
2021/11/06 03:57:22;;;;;;;;;27.75;22.00;;;;;17.65;76.78;101638.00;146605;603;46012;-73
2021/11/06 03:59:56;;;;;;;;;23.50;21.75;;;;;17.67;76.46;101641.56;146610;593;46011;-82
2021/11/06 04:02:30;;;;;;;;;23.75;20.50;;;;;17.66;76.58;101637.19;146610;613;45016;-79
2021/11/06 04:05:04;;;;;;;;;25.50;22.50;;;;;17.69;76.52;101637.25;146610;581;46012;-75
2021/11/06 04:07:38;;;;;;;;;23.50;22.25;;;;;17.69;76.62;101639.00;146607;614;45026;-75
2021/11/06 04:10:13;;;;;;;;;23.50;21.00;;;;;17.71;76.38;101638.22;146609;680;46012;-75
2021/11/06 04:12:47;;;;;;;;;22.25;19.25;;;;;17.71;76.49;101643.47;146604;571;45042;-80
2021/11/06 04:15:21;;;;;;;;;22.75;21.75;;;;;17.72;76.46;101646.97;146607;565;46021;-76
2021/11/06 04:17:55;;;;;;;;;20.25;18.50;;;;;17.73;76.52;101651.41;146608;616;45020;-81
2021/11/06 04:20:29;;;;;;;;;22.75;21.25;;;;;17.70;76.39;101646.94;146609;565;46020;-79
2021/11/06 04:23:03;;;;;;;;;20.00;17.00;;;;;17.71;76.64;101659.19;146605;608;46012;-77
2021/11/06 04:25:37;;;;;;;;;22.50;19.00;;;;;17.69;76.54;101663.50;146607;584;45020;-80
2021/11/06 04:28:11;;;;;;;;;20.00;17.50;;;;;17.68;76.11;101655.56;146609;576;46012;-78
2021/11/06 04:30:45;;;;;;;;;20.25;18.25;;;;;17.69;76.36;101654.72;146609;681;46021;-78
2021/11/06 04:33:19;;;;;;;;;22.75;20.25;;;;;17.66;76.67;101647.66;146607;599;45016;-83
2021/11/06 04:35:53;;;;;;;;;19.25;18.75;;;;;17.64;76.62;101651.06;146610;564;45022;-81
2021/11/06 04:38:26;;;;;;;;;21.50;19.75;;;;;17.64;76.69;101653.69;146605;615;46016;-79
2021/11/06 04:41:00;;;;;;;;;20.00;17.00;;;;;17.62;76.61;101644.84;146609;565;45049;-76
2021/11/06 04:43:35;;;;;;;;;17.50;14.25;;;;;17.60;76.49;101638.66;146608;620;45016;-76
2021/11/06 04:46:09;;;;;;;;;19.75;16.75;;;;;17.57;76.75;101636.84;146612;685;45030;-74
2021/11/06 04:48:42;;;;;;;;;18.50;16.00;;;;;17.59;76.50;101645.62;146606;583;46016;-75
2021/11/06 04:51:16;;;;;;;;;18.50;15.50;;;;;17.55;76.63;101646.38;146610;571;45029;-74
2021/11/06 04:53:50;;;;;;;;;25.75;17.75;;;;;17.54;76.46;101648.09;146607;570;46012;-79
2021/11/06 04:56:24;;;;;;;;;19.75;17.00;;;;;17.49;76.80;101647.03;146611;579;45012;-80
2021/11/06 04:58:58;;;;;;;;;17.25;15.50;;;;;17.45;76.57;101642.50;146607;699;45033;-75
2021/11/06 05:01:33;;;;;;;;;17.25;14.75;;;;;17.45;76.70;101649.50;146608;601;45020;-75
2021/11/06 05:04:06;;;;;;;;;18.00;17.25;;;;;17.43;76.77;101652.03;146605;586;46915;-71
2021/11/06 05:06:40;;;;;;;;;18.50;18.25;;;;;17.40;76.99;101657.16;146608;595;45020;-74
2021/11/06 05:09:14;;;;;;;;;22.50;18.25;;;;;17.39;77.17;101667.59;146610;645;45033;-73
2021/11/06 05:11:49;;;;;;;;;20.75;17.00;;;;;17.37;77.19;101674.50;146611;728;45023;-75
2021/11/06 05:14:23;;;;;;;;;17.00;14.50;;;;;17.35;76.86;101682.28;146604;649;46916;-72
2021/11/06 05:16:56;;;;;;;;;21.50;18.25;;;;;17.35;77.29;101687.53;146610;592;45032;-72
2021/11/06 05:19:30;;;;;;;;;21.50;19.00;;;;;17.33;78.10;101689.22;146606;573;45020;-70
2021/11/06 05:22:05;;;;;;;;;19.75;18.00;;;;;17.30;77.46;101691.72;146607;584;46011;-70
2021/11/06 05:24:38;;;;;;;;;24.50;18.75;;;;;17.26;77.88;101687.22;146604;565;46016;-70
2021/11/06 05:27:12;;;;;;;;;19.75;19.00;;;;;17.25;77.52;101690.63;146611;587;45029;-75
2021/11/06 05:29:46;;;;;;;;;23.00;21.00;;;;;17.24;77.42;101689.75;146606;585;46017;-74
2021/11/06 05:32:20;;;;;;;;;17.00;17.00;;;;;17.23;77.35;101684.47;146606;576;45020;-74
2021/11/06 05:34:54;;;;;;;;;22.25;18.25;;;;;17.22;77.51;101687.91;146607;563;45016;-73
2021/11/06 05:37:28;;;;;;;;;22.25;17.75;;;;;17.24;77.03;101689.75;146611;564;45021;-74
2021/11/06 05:40:02;;;;;;;;;18.25;18.00;;;;;17.23;77.30;101693.22;146604;576;46016;-73
2021/11/06 05:42:37;;;;;;;;;21.25;15.75;;;;;17.26;77.52;101702.94;146609;657;45045;-73
2021/11/06 05:45:12;;;;;;;;;22.75;20.50;;;;;17.27;77.43;101705.59;146604;601;46016;-72
2021/11/06 05:47:45;;;;;;;;;21.50;19.50;;;;;17.25;78.10;101712.50;146610;598;46010;-72
2021/11/06 05:50:20;;;;;;;;;27.00;24.50;;;;;17.27;77.91;101723.06;146608;578;46012;-72
2021/11/06 05:52:54;;;;;;;;;23.25;21.00;;;;;17.26;77.82;101729.16;146609;552;45021;-72
2021/11/06 05:55:28;;;;;;;;;26.00;22.50;;;;;17.24;77.40;101725.56;146608;600;45025;-73
2021/11/06 05:58:02;;;;;;;;;25.00;22.00;;;;;17.29;77.81;101738.03;146608;564;46008;-73
2021/11/06 06:00:36;;;;;;;;;25.50;22.75;;;;;17.30;76.96;101733.66;146606;613;45021;-73
2021/11/06 06:03:10;;;;;;;;;22.50;21.00;;;;;17.35;77.10;101741.69;146611;609;45031;-73
2021/11/06 06:05:44;;;;;;;;;23.50;20.50;;;;;17.37;77.22;101747.91;146605;625;45020;-73
2021/11/06 06:08:18;;;;;;;;;23.00;20.75;;;;;17.35;77.46;101755.69;146609;565;45021;-73
2021/11/06 06:10:51;;;;;;;;;24.50;22.75;;;;;17.35;77.34;101754.81;146606;565;46016;-73
2021/11/06 06:13:27;;;;;;;;;25.50;21.50;;;;;17.35;77.70;101762.66;146610;614;45021;-73
2021/11/06 06:16:01;;;;;;;;;19.50;16.25;;;;;17.32;77.53;101766.09;146604;588;45020;-72
2021/11/06 06:18:34;;;;;;;;;19.75;19.50;;;;;17.34;77.05;101771.38;146608;595;46012;-72
2021/11/06 06:21:08;;;;;;;;;23.25;19.50;;;;;17.32;77.38;101763.47;146608;601;45017;-71
2021/11/06 06:23:43;;;;;;;;;19.00;16.00;;;;;17.35;76.57;101763.56;146609;585;45020;-74
2021/11/06 06:26:17;;;;;;;;;19.00;17.00;;;;;17.40;76.88;101762.03;146608;602;45020;-71
2021/11/06 06:28:51;;;;;;;;;19.25;19.25;;;;;17.49;76.35;101769.37;146608;572;45021;-72
2021/11/06 06:31:25;;;;;;;;;16.00;14.75;;;;;17.57;75.65;101764.41;146609;630;46012;-71
2021/11/06 06:33:59;;;;;;;;;18.00;16.00;;;;;17.64;75.79;101762.09;146611;643;45020;-71
2021/11/06 06:36:32;;;;;;;;;16.75;15.75;;;;;17.69;75.49;101762.28;146606;587;45018;-72
2021/11/06 06:39:07;;;;;;;;;20.00;16.75;;;;;17.75;75.80;101763.41;146610;647;45030;-71
2021/11/06 06:41:41;;;;;;;;;20.00;17.50;;;;;17.80;75.87;101765.37;146606;586;46016;-73
2021/11/06 06:44:15;;;;;;;;;19.25;19.25;;;;;17.78;76.62;101765.28;146610;574;45035;-75
2021/11/06 06:46:50;;;;;;;;;23.25;19.75;;;;;17.75;76.79;101776.50;146604;569;46016;-73
2021/11/06 06:49:23;;;;;;;;;24.00;22.00;;;;;17.72;76.91;101779.03;146609;563;46010;-73
2021/11/06 06:51:57;;;;;;;;;18.00;16.50;;;;;17.71;76.89;101784.22;146605;669;46016;-72
2021/11/06 06:54:32;;;;;;;;;19.25;17.00;;;;;17.70;76.53;101785.06;146610;601;45020;-73
2021/11/06 06:57:06;;;;;;;;;23.50;20.50;;;;;17.72;76.82;101783.38;146604;565;46016;-73
2021/11/06 06:59:40;;;;;;;;;21.25;19.50;;;;;17.73;76.95;101782.56;146611;579;46010;-73
2021/11/06 07:02:15;;;;;;;;;21.25;18.75;;;;;17.73;77.06;101785.19;146606;609;46016;-73
2021/11/06 07:04:48;;;;;;;;;21.75;19.25;;;;;17.74;77.09;101794.84;146607;581;45021;-73
2021/11/06 07:07:22;;;;;;;;;23.75;20.50;;;;;17.74;76.30;101793.09;146606;588;46016;-73
2021/11/06 07:09:56;;;;;;;;;21.50;18.50;;;;;17.79;76.28;101798.56;146608;582;46020;-74
2021/11/06 07:12:30;;;;;;;;;22.50;16.75;;;;;17.87;75.65;101796.25;146605;588;47016;-73
2021/11/06 07:15:05;;;;;;;;;32.75;26.75;;;;;17.95;75.49;101794.81;146605;669;46020;-74
2021/11/06 07:17:39;;;;;;;;;50.25;37.50;;;;;18.04;74.93;101794.25;146608;591;46012;-74
2021/11/06 07:20:15;;;;;;;;;34.25;32.25;;;;;17.89;74.57;101761.34;146609;579;45021;-72
2021/11/06 07:22:50;;;;;;;;;41.25;33.25;;;;;18.14;74.35;101797.28;146608;603;45021;-74
2021/11/06 07:25:24;;;;;;;;;48.75;38.75;;;;;18.22;74.34;101805.44;146609;571;46010;-74
2021/11/06 07:27:58;;;;;;;;;28.75;25.00;;;;;18.26;74.57;101806.47;146607;677;46012;-73
2021/11/06 07:30:33;;;;;;;;;22.25;20.25;;;;;18.29;74.73;101796.97;146606;569;46020;-76
2021/11/06 07:33:07;;;;;;;;;18.50;17.75;;;;;18.32;74.61;101801.44;146604;565;45018;-75
2021/11/06 07:35:41;;;;;;;;;19.25;16.25;;;;;18.32;75.27;101794.47;146608;599;46012;-78
2021/11/06 07:38:15;;;;;;;;;22.00;19.50;;;;;17.01;74.85;101581.41;146605;680;46016;-78
2021/11/06 07:40:48;;;;;;;;;21.75;19.50;;;;;18.31;74.93;101797.00;146608;597;45020;-78
2021/11/06 07:43:22;;;;;;;;;21.75;19.25;;;;;18.30;75.36;101800.47;146606;580;46012;-83
2021/11/06 07:45:56;;;;;;;;;19.25;17.75;;;;;18.30;74.81;101808.34;146607;588;45020;-87
2021/11/06 07:48:30;;;;;;;;;19.25;18.75;;;;;18.30;75.29;101800.47;146610;602;45034;-92
2021/11/06 07:51:05;;;;;;;;;21.00;17.75;;;;;18.32;75.36;101807.59;146609;576;46010;-79
2021/11/06 07:53:38;;;;;;;;;26.25;23.00;;;;;18.36;75.29;101806.84;146605;633;46016;-79
2021/11/06 07:56:13;;;;;;;;;24.00;21.00;;;;;18.39;75.48;101812.22;146608;592;46020;-73
2021/11/06 07:58:47;;;;;;;;;22.50;21.00;;;;;18.42;75.21;101809.69;146607;575;45038;-72
2021/11/06 08:01:21;;;;;;;;;26.00;22.50;;;;;18.46;75.24;101813.31;146610;658;45020;-73
2021/11/06 08:03:55;;;;;;;;;22.00;19.75;;;;;18.52;75.58;101810.94;146607;637;45020;-73
2021/11/06 08:06:34;;;;;;;;;26.00;23.00;;;;;18.56;75.12;101817.19;146606;563;46012;-74
2021/11/06 08:09:09;;;;;;;;;22.75;19.00;;;;;18.55;75.01;101812.78;146604;570;46016;-73
2021/11/06 08:11:44;;;;;;;;;23.00;20.00;;;;;18.54;74.71;101803.13;146610;610;46021;-74
2021/11/06 08:14:18;;;;;;;;;19.00;17.75;;;;;18.56;74.87;101804.94;146607;599;46016;-76
2021/11/06 08:16:56;;;;;;;;;18.75;17.25;;;;;18.61;74.67;101807.75;146608;626;45020;-74
2021/11/06 08:19:30;;;;;;;;;25.75;21.00;;;;;18.62;74.67;101807.78;146604;585;47916;-75
2021/11/06 08:22:04;;;;;;;;;21.50;20.75;;;;;18.64;74.48;101803.47;146610;611;45020;-74
2021/11/06 08:24:38;;;;;;;;;24.25;21.00;;;;;18.67;74.13;101807.97;146606;729;45020;-74
2021/11/06 08:27:13;;;;;;;;;23.50;19.00;;;;;18.71;74.37;101807.22;146609;631;46010;-73
2021/11/06 08:29:47;;;;;;;;;18.50;17.25;;;;;18.79;74.26;101810.16;146606;563;45032;-74
2021/11/06 08:32:21;;;;;;;;;23.75;18.25;;;;;18.85;74.23;101813.00;146608;593;46013;-75
2021/11/06 08:34:55;;;;;;;;;25.75;21.25;;;;;18.90;74.05;101812.28;146605;572;45021;-75
2021/11/06 08:37:29;;;;;;;;;20.25;15.75;;;;;18.97;73.92;101805.56;146607;649;46020;-79
2021/11/06 08:40:03;;;;;;;;;21.75;19.25;;;;;19.07;73.87;101804.13;146606;631;45020;-80
2021/11/06 08:42:38;;;;;;;;;21.00;19.75;;;;;19.14;73.46;101798.22;146607;585;46010;-82
2021/11/06 08:45:15;;;;;;;;;20.00;20.00;;;;;19.25;73.26;101804.75;146607;576;45020;-81
2021/11/06 08:47:49;;;;;;;;;18.25;15.50;;;;;19.32;73.04;101800.56;146604;669;46021;-80
2021/11/06 08:50:27;;;;;;;;;21.25;20.75;;;;;19.37;72.91;101804.22;146607;590;45016;-81
2021/11/06 08:53:02;;;;;;;;;20.75;18.50;;;;;19.40;72.58;101801.69;146609;642;45020;-81
2021/11/06 08:55:35;;;;;;;;;26.50;23.00;;;;;19.41;72.83;101800.88;146605;635;46020;-81
2021/11/06 08:58:09;;;;;;;;;25.50;23.00;;;;;19.39;72.89;101808.69;146606;577;46012;-80
2021/11/06 09:00:47;;;;;;;;;26.00;23.00;;;;;19.38;73.16;101811.28;146608;609;46012;-78
2021/11/06 09:03:24;;;;;;;;;29.25;22.25;;;;;19.37;72.95;101810.38;146612;674;45021;-78
2021/11/06 09:05:59;;;;;;;;;25.50;23.50;;;;;19.33;73.18;101810.22;146607;595;45021;-81
2021/11/06 09:08:37;;;;;;;;;32.00;25.00;;;;;19.26;73.17;101803.88;146609;563;45020;-79
2021/11/06 09:11:12;;;;;;;;;26.75;21.25;;;;;19.21;73.09;101802.81;146605;573;46016;-79
2021/11/06 09:13:51;;;;;;;;;20.75;20.00;;;;;19.17;73.71;101802.69;146607;595;46020;-80
2021/11/06 09:16:25;;;;;;;;;24.75;21.25;;;;;19.18;73.65;101800.09;146607;579;45020;-80
2021/11/06 09:18:59;;;;;;;;;25.75;21.75;;;;;19.26;73.61;101800.38;146609;572;46021;-80
2021/11/06 09:21:33;;;;;;;;;24.00;19.50;;;;;19.33;73.36;101797.97;146605;565;46915;-80
2021/11/06 09:24:07;;;;;;;;;23.75;21.75;;;;;19.39;73.33;101792.91;146610;622;45030;-80
2021/11/06 09:26:44;;;;;;;;;24.00;18.25;;;;;19.41;72.82;101785.09;146608;581;45038;-81
2021/11/06 09:29:20;;;;;;;;;23.50;20.25;;;;;19.44;72.60;101789.53;146609;566;45020;-81
2021/11/06 09:31:54;;;;;;;;;23.25;20.25;;;;;19.46;72.99;101780.84;146605;581;46016;-80
2021/11/06 09:34:28;;;;;;;;;26.25;23.50;;;;;19.50;72.72;101773.94;146610;622;46013;-81
2021/11/06 09:37:01;;;;;;;;;27.75;24.50;;;;;19.57;72.87;101779.47;146605;597;45040;-80
2021/11/06 09:39:36;;;;;;;;;24.50;22.25;;;;;19.65;72.32;101777.09;146609;608;45020;-80
2021/11/06 09:42:10;;;;;;;;;26.50;23.00;;;;;19.71;72.51;101771.12;146605;691;46016;-76
2021/11/06 09:44:45;;;;;;;;;25.25;24.75;;;;;19.77;71.71;101769.56;146605;565;47010;-76
2021/11/06 09:47:18;;;;;;;;;23.25;22.25;;;;;19.84;71.97;101762.75;146610;676;45016;-75
2021/11/06 09:49:54;;;;;;;;;35.00;28.25;;;;;19.92;71.77;101765.63;146609;573;45020;-75
2021/11/06 09:52:28;;;;;;;;;32.50;28.25;;;;;19.97;72.14;101750.84;146606;646;46016;-76
2021/11/06 09:55:02;;;;;;;;;40.00;31.25;;;;;20.05;72.00;101744.94;146608;570;46021;-77
2021/11/06 09:57:37;;;;;;;;;30.75;22.75;;;;;20.16;71.85;101744.38;146606;639;45021;-75
2021/11/06 10:00:12;;;;;;;;;39.00;30.25;;;;;20.17;70.50;101744.41;146610;600;45020;-76
2021/11/06 10:02:48;;;;;;;;;30.75;28.25;;;;;20.12;70.87;101745.13;146606;654;45017;-77
2021/11/06 10:05:22;;;;;;;;;41.00;33.00;;;;;20.09;71.25;101732.75;146609;639;46020;-75
2021/11/06 10:07:56;;;;;;;;;36.00;30.25;;;;;20.11;71.66;101738.09;146606;605;45016;-75
2021/11/06 10:10:39;;;;;;;;;32.75;29.00;;;;;20.18;71.29;101732.13;146607;653;46020;-76
2021/11/06 10:13:13;;;;;;;;;32.50;29.50;;;;;20.26;71.10;101733.25;146604;611;46016;-76
2021/11/06 10:15:52;;;;;;;;;35.00;29.25;;;;;20.39;70.56;101730.09;146607;612;46020;-75
2021/11/06 10:18:28;;;;;;;;;39.50;32.25;;;;;20.50;71.36;101728.66;146604;626;46017;-77
2021/11/06 10:21:07;;;;;;;;;38.25;32.00;;;;;20.62;69.90;101728.09;146607;573;46012;-76
2021/11/06 10:23:44;;;;;;;;;42.75;32.25;;;;;20.68;70.60;101725.59;146605;609;46016;-75
2021/11/06 10:26:23;;;;;;;;;36.75;29.25;;;;;20.70;69.84;101729.19;146611;576;45021;-77
2021/11/06 10:29:39;;;;;;;;;35.25;30.25;;;;;20.71;69.81;101724.81;146606;589;45020;-76
2021/11/06 10:32:13;;;;;;;;;40.25;32.50;;;;;20.69;70.24;101723.91;146609;665;45021;-76
2021/11/06 10:34:47;;;;;;;;;36.25;31.50;;;;;20.66;69.98;101723.81;146606;696;46016;-77
2021/11/06 10:37:21;;;;;;;;;32.00;26.00;;;;;20.63;69.70;101716.72;146608;706;46020;-75
2021/11/06 10:40:03;;;;;;;;;31.75;28.75;;;;;20.56;69.84;101717.41;146606;576;45020;-76
2021/11/06 10:42:37;;;;;;;;;33.00;29.25;;;;;20.48;70.25;101722.44;146607;609;46012;-77
2021/11/06 10:45:16;;;;;;;;;34.25;30.00;;;;;20.43;70.40;101724.03;146606;564;45020;-76
2021/11/06 10:48:06;;;;;;;;;34.75;30.50;;;;;20.40;70.59;101723.06;146608;564;46021;-76
2021/11/06 10:50:54;;;;;;;;;36.50;32.50;;;;;20.38;71.24;101716.91;146606;572;46016;-75
2021/11/06 10:53:51;;;;;;;;;46.50;35.25;;;;;20.37;71.23;101725.63;146611;600;45024;-76
2021/11/06 10:56:44;;;;;;;;;44.25;38.00;;;;;20.36;70.91;101719.47;146607;608;45019;-76
2021/11/06 10:59:22;;;;;;;;;47.00;37.25;;;;;20.34;71.34;101721.16;146611;666;45020;-76
2021/11/06 11:01:57;;;;;;;;;52.75;40.25;;;;;19.82;71.18;101630.22;146608;614;45020;-76
2021/11/06 11:04:42;;;;;;;;;45.75;37.00;;;;;20.29;71.22;101718.41;146605;580;46012;-76
2021/11/06 11:07:20;;;;;;;;;44.75;36.00;;;;;20.13;70.70;101702.16;146607;602;45915;-75
2021/11/06 11:09:54;;;;;;;;;42.75;34.25;;;;;20.11;71.47;101717.91;146607;581;45020;-75
2021/11/06 11:12:30;;;;;;;;;47.25;37.00;;;;;20.00;71.40;101721.97;146602;610;46020;-75
2021/11/06 11:15:04;;;;;;;;;44.50;34.75;;;;;19.90;71.97;101712.91;146607;581;46020;-76
2021/11/06 11:17:46;;;;;;;;;47.00;36.00;;;;;19.83;71.89;101713.59;146609;582;45916;-75
2021/11/06 11:20:35;;;;;;;;;45.25;38.50;;;;;19.79;72.34;101717.87;146612;613;45012;-76
2021/11/06 11:23:24;;;;;;;;;51.50;41.00;;;;;19.83;72.67;101717.09;146607;581;45915;-76
2021/11/06 11:25:59;;;;;;;;;49.50;39.25;;;;;19.87;72.84;101710.19;146609;599;46009;-76
2021/11/06 11:28:33;;;;;;;;;49.75;39.75;;;;;19.91;71.89;101709.47;146608;611;46014;-76
2021/11/06 11:31:08;;;;;;;;;52.00;41.25;;;;;19.87;71.87;101701.41;146610;604;45910;-76
2021/11/06 11:33:46;;;;;;;;;49.75;40.00;;;;;19.89;71.68;101705.00;146606;588;45906;-77
2021/11/06 11:36:23;;;;;;;;;52.00;40.75;;;;;19.93;72.50;101704.22;146607;642;46010;-75
2021/11/06 11:39:00;;;;;;;;;52.50;41.25;;;;;20.00;72.34;101696.56;146610;591;45015;-75
2021/11/06 11:42:23;;;;;;;;;50.50;41.00;;;;;20.21;72.10;101690.97;146607;640;46020;-77
2021/11/06 11:45:43;;;;;;;;;50.00;39.75;;;;;19.75;71.30;101560.75;146608;563;45916;-76